首页
METAR-TAF:

METAR-TAF

机场 :

Newport Municipal Airport

纽波特, 俄勒冈州, 美国

纬度: 44-34-49N, 经度: 124-03-29W, 海拔: 49米

当前天气观测

该预报发布于33分钟前的23:55 UTC
风速13节,风向,有时为16节阵风
温度 24°C
湿度 22%
气压 1014 hPa
能見度: 16.1公里
天空无云

METAR: KONP 182355Z AUTO 09013G16KT 10SM CLR 24/01 A2995 RMK AO2

时间: 17:28 (00:28 UTC)

预报

该预报发布于1小时和8分钟前的23:20 UTC
预报有效从19日的 00点(UTC)到 19日的 24点(UTC)
风速13节,风向东转东南,有时为20节阵风
能見度: 10公里
天空无云
从 19日的 0200点(UTC)
风速9节,风向
能見度: 10公里
天空无云
从 19日的 1400点(UTC)
风速13节,风向东转东南,有时为20节阵风
能見度: 10公里
天空无云

TAF: KONP 182320Z 1900/1924 11013G20KT P6SM SKC FM190200 10009KT P6SM SKC FM191400 11013G20KT P6SM SKC

超过4000个机场的气象观测和天气预报(METAR&TAF报告)。

可查询的气象台以黄色和红色小点在地图上表示。

将鼠标移到小点上方,可查看气象台名称。

然后点击查看天气观测和预报。

如需切换地图:点击带黑十字的绿色按钮放大地图;点击带横线的绿色按钮缩小地图;或者点击绿色箭头查看邻近地区的地图。


METAR-TAF: